CDT,Max TemperatureF,Mean TemperatureF,Min TemperatureF,Max Dew PointF,MeanDew PointF,Min DewpointF,Max Humidity, Mean Humidity, Min Humidity, Max Sea Level PressureIn, Mean Sea Level PressureIn, Min Sea Level PressureIn, Max VisibilityMiles, Mean VisibilityMiles, Min VisibilityMiles, Max Wind SpeedMPH, Mean Wind SpeedMPH, Max Gust SpeedMPH,PrecipitationIn, CloudCover, Events, WindDirDegrees
2013-5-1,50,42,33,30,21,18,65,50,39,30.49,30.25,29.92,10,10,10,16,11,24,0.00,4,,304
2013-5-2,42,35,28,21,19,18,74,53,36,30.55,30.50,30.44,10,10,10,17,9,24,0.00,5,,349
2013-5-3,35,30,24,28,24,19,93,79,52,30.44,30.30,30.22,10,8,1,13,4,18,0.02,5,Rain-Snow,49
2013-5-4,37,34,30,34,31,27,93,89,81,30.23,30.20,30.18,10,7,0,13,7,,0.07,8,Fog-Rain,62
2013-5-5,51,42,33,37,35,32,93,80,54,30.21,30.17,30.12,10,7,1,9,6,,0.00,5,,76
2013-5-6,71,50,30,41,35,27,93,60,25,30.13,30.08,30.02,10,10,2,8,2,,0.00,0,,86
2013-5-7,75,55,35,39,35,27,93,55,18,30.08,30.02,29.97,10,10,10,12,2,,0.00,1,,121
2013-5-8,69,53,37,46,39,34,93,58,31,30.03,30.01,29.98,10,10,7,8,1,,0.00,4,Rain,306
2013-5-9,55,45,35,45,32,21,81,62,39,30.19,30.12,30.02,10,10,10,24,9,30,0.00,5,Rain,75
2013-5-10,51,40,28,25,20,7,80,48,20,30.19,30.06,29.88,10,10,10,16,8,23,0.00,1,,82
2013-5-11,46,40,35,32,22,16,70,50,31,30.14,30.02,29.91,10,10,4,28,16,40,0.00,7,Rain,313
2013-5-12,53,40,28,19,10,1,64,34,13,30.17,30.13,30.08,10,10,7,21,9,30,0.00,0,,323
2013-5-13,60,46,32,36,19,9,62,37,15,30.11,29.94,29.68,10,10,10,16,5,23,0.01,1,Rain,146
2013-5-14,78,56,33,43,33,10,87,53,7,29.80,29.60,29.43,10,10,7,20,4,33,0.03,1,Rain,111
2013-5-15,78,63,48,43,29,9,71,34,7,29.86,29.79,29.62,10,10,10,21,13,32,0.00,1,,289
2013-5-16,69,56,42,39,29,18,76,40,15,30.02,29.96,29.84,10,10,5,15,6,20,0.00,1,,70
2013-5-17,57,50,44,32,31,28,61,48,33,30.09,30.05,30.02,10,10,10,20,12,26,0.00,5,,86
2013-5-18,50,44,39,46,41,32,93,87,61,30.04,29.95,29.87,10,2,0,12,7,,0.24,8,Fog-Rain-Thunderstorm,95
2013-5-19,53,48,44,52,45,41,94,88,77,29.88,29.79,29.70,10,3,0,21,8,31,0.22,8,Fog-Rain-Thunderstorm,92
2013-5-20,50,46,42,46,43,39,93,90,81,29.71,29.65,29.59,10,5,0,22,17,33,0.43,8,Fog-Rain,80
2013-5-21,50,46,42,43,41,39,93,85,76,29.80,29.71,29.65,10,7,1,22,16,34,0.39,8,Rain,71
2013-5-22,53,48,42,43,39,32,87,74,47,30.08,29.89,29.78,10,8,2,22,15,34,0.15,5,Rain,64
2013-5-23,57,47,35,36,27,19,75,49,26,30.35,30.26,30.09,10,10,10,12,8,18,0.00,1,,79
2013-5-24,66,48,30,32,25,16,93,47,14,30.41,30.33,30.25,10,10,10,12,3,17,0.00,0,,129
2013-5-25,53,48,42,34,31,28,61,52,41,30.32,30.29,30.26,10,10,10,13,6,20,0.00,7,,96
2013-5-26,62,50,39,32,28,18,65,43,23,30.30,30.23,30.15,10,10,7,18,8,25,0.00,1,,88
2013-5-27,59,50,41,34,30,27,65,48,31,30.12,30.01,29.89,10,10,10,16,7,24,0.00,6,,88
2013-5-28,60,53,46,41,36,34,66,56,45,29.89,29.79,29.74,10,10,10,12,5,16,0.00,8,Rain,96
2013-5-29,75,60,44,57,48,36,88,69,38,29.83,29.77,29.70,10,9,2,15,3,18,0.79,7,Rain-Thunderstorm,115
2013-5-30,68,60,51,57,52,48,94,86,68,29.73,29.65,29.57,10,6,0,14,7,17,0.81,7,Fog-Rain-Thunderstorm,96
2013-5-31,77,64,50,57,51,45,94,76,32,29.59,29.55,29.51,10,7,0,21,5,28,0.06,6,Fog-Rain-Thunderstorm,129